createdAt,value
2018-06-30T00:01:45.302Z,20.60
2018-06-30T00:04:19.955Z,20.60
2018-06-30T00:06:54.144Z,20.60
2018-06-30T00:09:27.531Z,20.50
2018-06-30T00:12:00.037Z,20.50
2018-06-30T00:14:32.688Z,20.40
2018-06-30T00:17:04.223Z,20.40
2018-06-30T00:19:35.075Z,20.40
2018-06-30T00:22:07.980Z,20.40
2018-06-30T00:24:48.006Z,20.30
2018-06-30T00:30:13.100Z,20.30
2018-06-30T00:32:45.786Z,20.10
2018-06-30T00:35:18.661Z,20.30
2018-06-30T00:37:51.546Z,20.20
2018-06-30T00:40:24.657Z,20.20
2018-06-30T00:42:57.732Z,20.20
2018-06-30T00:45:31.047Z,20.20
2018-06-30T00:48:25.993Z,20.20
2018-06-30T00:50:59.241Z,20.20
2018-06-30T00:53:32.130Z,20.10
2018-06-30T00:56:05.420Z,20.10
2018-06-30T00:58:38.169Z,20.30
2018-06-30T01:01:11.259Z,20.40
2018-06-30T01:03:45.349Z,20.30
2018-06-30T01:06:18.351Z,20.10
2018-06-30T01:08:51.480Z,20.00
2018-06-30T01:11:25.565Z,20.00
2018-06-30T01:13:58.815Z,19.90
2018-06-30T01:16:31.153Z,19.90
2018-06-30T01:19:04.962Z,19.80
2018-06-30T01:21:37.945Z,19.80
2018-06-30T01:31:04.103Z,19.70
2018-06-30T01:33:37.619Z,19.90
2018-06-30T01:36:09.689Z,19.90
2018-06-30T01:38:42.675Z,19.80
2018-06-30T01:41:15.556Z,19.90
2018-06-30T01:43:56.845Z,20.00
2018-06-30T01:47:15.191Z,19.90
2018-06-30T01:49:48.887Z,19.90
2018-06-30T01:52:21.979Z,19.80
2018-06-30T01:57:47.921Z,19.80
2018-06-30T02:00:22.237Z,19.60
2018-06-30T02:02:55.222Z,19.50
2018-06-30T02:05:28.109Z,19.40
2018-06-30T02:08:01.402Z,19.40
2018-06-30T02:10:34.141Z,19.50
2018-06-30T02:13:07.274Z,19.40
2018-06-30T02:15:40.360Z,19.40
2018-06-30T02:18:13.862Z,19.40
2018-06-30T02:20:47.438Z,19.30
2018-06-30T02:23:20.005Z,19.40
2018-06-30T02:26:04.798Z,19.20
2018-06-30T02:28:37.543Z,19.20
2018-06-30T02:31:11.596Z,19.10
2018-06-30T02:33:45.096Z,19.00
2018-06-30T02:36:18.085Z,19.00
2018-06-30T02:38:50.830Z,19.00
2018-06-30T02:41:24.050Z,18.90
2018-06-30T02:43:57.040Z,18.90
2018-06-30T02:46:39.093Z,18.90
2018-06-30T02:49:13.154Z,18.90
2018-06-30T02:51:42.813Z,18.90
2018-06-30T02:54:13.792Z,18.90
2018-06-30T02:56:43.906Z,18.90
2018-06-30T03:22:38.548Z,18.90
2018-06-30T03:25:09.200Z,18.80
2018-06-30T03:27:42.743Z,18.80
2018-06-30T03:30:16.915Z,18.80
2018-06-30T03:32:51.231Z,18.90
2018-06-30T03:35:24.525Z,18.80
2018-06-30T03:37:56.485Z,18.80
2018-06-30T03:40:29.164Z,18.80
2018-06-30T03:43:02.470Z,18.70
2018-06-30T03:45:35.150Z,18.80
2018-06-30T03:48:09.887Z,18.90
2018-06-30T03:50:43.251Z,18.80
2018-06-30T03:53:16.534Z,18.80
2018-06-30T03:55:49.728Z,18.80
2018-06-30T03:58:22.830Z,18.80
2018-06-30T04:00:55.917Z,18.70
2018-06-30T04:03:29.212Z,18.70
2018-06-30T04:06:01.896Z,18.70
2018-06-30T04:08:34.034Z,18.70
2018-06-30T04:11:07.560Z,18.70
2018-06-30T04:13:41.157Z,18.70
2018-06-30T04:16:15.685Z,18.70
2018-06-30T04:18:49.590Z,18.70
2018-06-30T04:21:27.228Z,18.70
2018-06-30T04:24:01.113Z,18.70
2018-06-30T04:26:34.798Z,18.70
2018-06-30T04:29:08.088Z,18.70
2018-06-30T04:31:41.561Z,18.70
2018-06-30T04:34:14.594Z,18.70
2018-06-30T04:36:47.865Z,18.70
2018-06-30T04:39:20.777Z,18.70
2018-06-30T04:41:53.944Z,18.80
2018-06-30T04:44:24.910Z,18.80
2018-06-30T04:46:56.093Z,18.80
2018-06-30T04:49:29.044Z,18.80
2018-06-30T04:52:02.406Z,18.90
2018-06-30T04:54:34.134Z,19.00
2018-06-30T04:57:03.667Z,19.10
2018-06-30T04:59:33.358Z,19.10
2018-06-30T05:02:06.336Z,19.10
2018-06-30T05:04:39.761Z,19.20
2018-06-30T05:07:13.176Z,19.30
2018-06-30T05:09:52.902Z,19.30
2018-06-30T05:12:22.815Z,19.40
2018-06-30T05:14:54.549Z,19.50
2018-06-30T05:17:27.665Z,19.60
2018-06-30T05:20:00.853Z,19.60
2018-06-30T05:22:34.780Z,19.90
2018-06-30T05:25:08.805Z,19.90
2018-06-30T05:27:41.966Z,19.90
2018-06-30T05:30:13.920Z,19.90
2018-06-30T05:32:47.120Z,19.90
2018-06-30T05:35:20.409Z,20.10
2018-06-30T05:37:53.163Z,20.20
2018-06-30T05:40:26.385Z,20.20
2018-06-30T05:42:59.237Z,20.30
2018-06-30T05:45:32.561Z,20.30
2018-06-30T05:48:04.626Z,20.40
2018-06-30T05:50:37.517Z,20.50
2018-06-30T05:53:12.686Z,20.60
2018-06-30T05:55:46.657Z,21.00
2018-06-30T05:58:18.723Z,21.10
2018-06-30T06:00:52.016Z,21.20
2018-06-30T06:03:25.809Z,21.30
2018-06-30T06:05:57.870Z,21.40
2018-06-30T06:08:30.976Z,21.50
2018-06-30T06:11:04.271Z,21.70
2018-06-30T06:13:37.080Z,21.90
2018-06-30T06:16:09.659Z,22.20
2018-06-30T06:18:42.197Z,22.50
2018-06-30T06:21:17.775Z,22.70
2018-06-30T06:23:51.295Z,23.00
2018-06-30T06:26:24.590Z,23.30
2018-06-30T06:28:57.065Z,23.60
2018-06-30T06:31:31.282Z,23.90
2018-06-30T06:34:05.500Z,24.40
2018-06-30T06:36:41.044Z,24.50
2018-06-30T06:39:17.668Z,24.80
2018-06-30T06:42:01.716Z,25.00
2018-06-30T06:44:35.693Z,25.30
2018-06-30T06:47:08.950Z,25.60
2018-06-30T06:49:43.336Z,25.90
2018-06-30T06:52:16.018Z,26.10
2018-06-30T06:54:48.877Z,26.40
2018-06-30T06:57:21.961Z,26.70
2018-06-30T06:59:55.184Z,27.00
2018-06-30T07:02:28.056Z,27.20
2018-06-30T07:05:01.156Z,27.50
2018-06-30T07:07:34.242Z,27.70
2018-06-30T07:10:07.542Z,28.00
2018-06-30T07:12:40.832Z,28.30
2018-06-30T07:15:15.559Z,28.50
2018-06-30T07:17:48.313Z,28.90
2018-06-30T07:20:21.179Z,29.00
2018-06-30T07:22:55.392Z,29.50
2018-06-30T07:25:28.453Z,29.80
2018-06-30T07:28:02.084Z,30.00
2018-06-30T07:30:35.378Z,30.20
2018-06-30T07:33:08.672Z,30.40
2018-06-30T08:05:47.394Z,31.60
2018-06-30T08:08:21.828Z,31.70
2018-06-30T08:10:55.799Z,31.70
2018-06-30T08:13:29.226Z,31.70
2018-06-30T08:19:31.525Z,31.70
2018-06-30T08:22:07.268Z,31.90
2018-06-30T08:24:40.563Z,32.00
2018-06-30T08:27:15.087Z,31.90
2018-06-30T08:29:49.408Z,32.10
2018-06-30T08:32:22.391Z,32.10
2018-06-30T08:34:57.739Z,32.10
2018-06-30T08:37:31.336Z,32.00
2018-06-30T08:40:07.811Z,32.00
2018-06-30T08:42:43.659Z,32.20
2018-06-30T08:45:22.489Z,32.30
2018-06-30T08:47:57.153Z,32.40
2018-06-30T08:50:30.612Z,32.50
2018-06-30T08:53:04.747Z,32.70
2018-06-30T08:55:38.066Z,32.90
2018-06-30T08:58:13.766Z,33.00
2018-06-30T09:00:48.960Z,33.20
2018-06-30T09:03:22.198Z,33.20
2018-06-30T09:05:56.419Z,33.40
2018-06-30T09:08:29.810Z,33.50
2018-06-30T09:11:04.538Z,33.60
2018-06-30T09:13:39.248Z,33.90
2018-06-30T09:16:14.750Z,34.00
2018-06-30T09:18:50.155Z,34.00
2018-06-30T09:21:25.509Z,34.20
2018-06-30T09:23:58.792Z,34.30
2018-06-30T09:26:43.780Z,34.20
2018-06-30T09:29:17.361Z,34.40
2018-06-30T09:31:51.449Z,34.40
2018-06-30T09:34:25.899Z,34.40
2018-06-30T09:37:31.242Z,34.40
2018-06-30T09:40:05.457Z,34.50
2018-06-30T09:42:43.659Z,34.60
2018-06-30T09:45:18.291Z,34.50
2018-06-30T09:47:53.439Z,34.50
2018-06-30T09:50:28.780Z,34.50
2018-06-30T09:53:01.972Z,34.50
2018-06-30T09:55:39.561Z,34.50
2018-06-30T09:58:13.774Z,34.60
2018-06-30T10:00:56.894Z,34.60
2018-06-30T10:03:31.196Z,34.70
2018-06-30T10:06:19.162Z,34.80
2018-06-30T10:08:54.927Z,34.90
2018-06-30T10:11:28.201Z,35.00
2018-06-30T10:14:02.524Z,35.00
2018-06-30T10:16:45.336Z,35.00
2018-06-30T10:19:34.082Z,34.90
2018-06-30T10:22:09.743Z,34.90
2018-06-30T10:24:44.594Z,34.90
2018-06-30T10:27:19.402Z,34.80
2018-06-30T10:29:55.363Z,34.70
2018-06-30T10:32:28.654Z,34.80
2018-06-30T10:35:03.176Z,34.70
2018-06-30T10:37:36.475Z,34.80
2018-06-30T10:40:09.436Z,34.70
2018-06-30T10:42:46.341Z,34.80
2018-06-30T10:45:22.088Z,34.80
2018-06-30T10:47:56.407Z,34.90
2018-06-30T10:50:31.617Z,35.00
2018-06-30T10:53:28.083Z,35.00
2018-06-30T10:56:04.757Z,35.10
2018-06-30T10:58:39.177Z,35.00
2018-06-30T11:01:15.544Z,35.10
2018-06-30T11:06:44.971Z,35.00
2018-06-30T11:12:53.614Z,35.40
2018-06-30T11:15:27.320Z,35.30
2018-06-30T11:18:01.872Z,35.40
2018-06-30T11:20:44.199Z,35.50
2018-06-30T11:23:33.925Z,35.50
2018-06-30T11:26:07.119Z,35.50
2018-06-30T11:28:44.147Z,35.50
2018-06-30T11:31:20.453Z,35.60
2018-06-30T11:33:57.141Z,35.70
2018-06-30T11:36:32.100Z,35.80
2018-06-30T11:39:06.699Z,36.00
2018-06-30T11:41:54.432Z,35.90
2018-06-30T11:44:37.968Z,36.00
2018-06-30T11:47:11.870Z,35.80
2018-06-30T11:49:44.857Z,35.80
2018-06-30T11:52:22.069Z,35.80
2018-06-30T11:54:56.359Z,35.90
2018-06-30T11:57:32.011Z,35.80
2018-06-30T12:00:17.056Z,35.80
2018-06-30T12:02:53.549Z,35.70
2018-06-30T12:05:30.365Z,35.70
2018-06-30T12:08:05.155Z,35.50
2018-06-30T12:10:39.249Z,35.50
2018-06-30T12:13:14.816Z,35.40
2018-06-30T12:15:49.732Z,35.30
2018-06-30T12:18:24.041Z,35.30
2018-06-30T12:20:58.490Z,35.30
2018-06-30T12:23:32.707Z,35.00
2018-06-30T12:26:06.836Z,35.00
2018-06-30T12:28:41.237Z,34.90
2018-06-30T12:31:18.423Z,34.80
2018-06-30T12:33:52.709Z,34.60
2018-06-30T12:36:26.658Z,34.50
2018-06-30T12:39:00.613Z,34.40
2018-06-30T12:41:40.001Z,34.30
2018-06-30T12:44:14.529Z,34.20
2018-06-30T12:46:49.201Z,34.20
2018-06-30T12:49:23.772Z,34.10
2018-06-30T12:51:59.524Z,34.00
2018-06-30T12:54:33.868Z,33.90
2018-06-30T12:57:09.465Z,33.80
2018-06-30T12:59:46.069Z,33.70
2018-06-30T13:02:20.278Z,33.60
2018-06-30T13:04:54.698Z,33.50
2018-06-30T13:07:29.651Z,33.50
2018-06-30T13:10:04.996Z,33.40
2018-06-30T13:12:40.263Z,33.40
2018-06-30T13:15:13.815Z,33.30
2018-06-30T13:17:48.056Z,33.20
2018-06-30T13:20:22.556Z,33.20
2018-06-30T13:22:57.076Z,33.20
2018-06-30T13:25:30.071Z,33.20
2018-06-30T13:28:04.078Z,33.10
2018-06-30T13:30:38.366Z,33.20
2018-06-30T13:33:12.710Z,33.20
2018-06-30T13:35:47.548Z,33.20
2018-06-30T13:38:22.154Z,33.20
2018-06-30T13:40:56.383Z,33.10
2018-06-30T13:43:30.291Z,33.00
2018-06-30T13:46:04.084Z,33.00
2018-06-30T13:48:38.624Z,33.10
2018-06-30T13:51:13.596Z,33.10
2018-06-30T13:53:47.948Z,33.10
2018-06-30T13:56:21.575Z,33.10
2018-06-30T13:58:55.795Z,33.10
2018-06-30T14:01:31.133Z,33.00
2018-06-30T14:04:05.113Z,33.10
2018-06-30T14:06:40.286Z,33.10
2018-06-30T14:09:16.854Z,33.00
2018-06-30T14:11:51.994Z,33.00
2018-06-30T14:14:26.411Z,33.00
2018-06-30T14:17:01.858Z,33.00
2018-06-30T14:19:36.864Z,33.10
2018-06-30T14:22:13.080Z,33.10
2018-06-30T14:24:48.088Z,33.10
2018-06-30T14:27:23.652Z,33.00
2018-06-30T14:29:57.938Z,33.10
2018-06-30T14:32:32.373Z,33.10
2018-06-30T14:35:06.692Z,33.00
2018-06-30T14:37:41.842Z,33.00
2018-06-30T14:40:16.250Z,33.00
2018-06-30T14:42:50.457Z,33.00
2018-06-30T14:45:24.988Z,33.00
2018-06-30T14:47:59.101Z,33.00
2018-06-30T14:50:33.629Z,33.00
2018-06-30T14:53:09.070Z,33.00
2018-06-30T14:55:42.056Z,32.90
2018-06-30T14:58:15.761Z,32.90
2018-06-30T15:00:49.770Z,32.90
2018-06-30T15:03:23.752Z,33.00
2018-06-30T15:06:00.155Z,33.00
2018-06-30T15:08:35.593Z,33.00
2018-06-30T15:11:10.935Z,33.00
2018-06-30T15:13:46.867Z,33.00
2018-06-30T15:16:22.158Z,33.00
2018-06-30T15:18:56.590Z,33.00
2018-06-30T15:21:29.953Z,33.10
2018-06-30T15:24:05.394Z,33.20
2018-06-30T15:26:39.312Z,33.00
2018-06-30T15:29:14.953Z,32.90
2018-06-30T15:31:48.937Z,32.90
2018-06-30T15:34:23.256Z,32.90
2018-06-30T15:36:59.447Z,32.80
2018-06-30T15:39:33.840Z,32.80
2018-06-30T15:42:08.051Z,32.90
2018-06-30T15:44:42.369Z,32.80
2018-06-30T15:47:18.969Z,32.80
2018-06-30T15:49:53.977Z,32.70
2018-06-30T15:52:29.662Z,32.80
2018-06-30T15:55:04.180Z,32.60
2018-06-30T15:57:38.905Z,32.60
2018-06-30T16:00:14.118Z,32.60
2018-06-30T16:02:49.077Z,32.60
2018-06-30T16:05:25.804Z,32.50
2018-06-30T16:08:00.486Z,32.70
2018-06-30T16:10:35.617Z,32.60
2018-06-30T16:13:10.542Z,32.60
2018-06-30T16:15:46.886Z,32.50
2018-06-30T16:18:20.192Z,32.40
2018-06-30T16:20:54.630Z,32.40
2018-06-30T16:23:30.075Z,32.40
2018-06-30T16:26:04.991Z,32.30
2018-06-30T16:28:40.341Z,32.30
2018-06-30T16:31:14.573Z,32.30
2018-06-30T16:33:48.579Z,32.20
2018-06-30T16:36:23.158Z,32.20
2018-06-30T16:38:57.518Z,32.20
2018-06-30T16:41:31.813Z,32.20
2018-06-30T16:44:06.157Z,32.20
2018-06-30T16:46:42.328Z,32.10
2018-06-30T16:49:18.624Z,32.20
2018-06-30T16:51:52.085Z,32.10
2018-06-30T16:54:27.426Z,32.20
2018-06-30T16:57:02.867Z,32.10
2018-06-30T16:59:38.007Z,32.10
2018-06-30T17:02:13.449Z,32.10
2018-06-30T17:04:51.867Z,32.00
2018-06-30T17:07:25.772Z,32.00
2018-06-30T17:10:01.012Z,31.80
2018-06-30T17:12:36.226Z,31.90
2018-06-30T17:15:09.829Z,31.80
2018-06-30T17:17:46.117Z,31.70
2018-06-30T17:20:20.337Z,31.80
2018-06-30T17:22:55.373Z,31.60
2018-06-30T17:25:31.226Z,31.50
2018-06-30T17:28:08.873Z,31.50
2018-06-30T17:30:44.150Z,31.50
2018-06-30T17:33:20.118Z,31.50
2018-06-30T17:35:54.948Z,31.40
2018-06-30T17:38:31.011Z,31.30
2018-06-30T17:41:06.553Z,31.20
2018-06-30T17:43:39.952Z,31.20
2018-06-30T17:46:14.894Z,31.10
2018-06-30T17:48:48.587Z,30.90
2018-06-30T17:51:23.621Z,31.00
2018-06-30T17:53:57.844Z,30.80
2018-06-30T17:56:33.160Z,30.60
2018-06-30T17:59:10.569Z,30.50
2018-06-30T18:01:45.092Z,30.50
2018-06-30T18:04:27.091Z,30.40
2018-06-30T18:07:02.232Z,30.30
2018-06-30T18:09:50.268Z,30.20
2018-06-30T18:12:24.061Z,30.20
2018-06-30T18:15:00.652Z,30.30
2018-06-30T18:17:35.555Z,30.20
2018-06-30T18:20:10.818Z,30.20
2018-06-30T18:22:46.327Z,30.20
2018-06-30T18:25:21.707Z,30.20
2018-06-30T18:27:56.844Z,30.10
2018-06-30T18:30:31.164Z,30.00
2018-06-30T18:33:07.226Z,30.00
2018-06-30T18:35:40.550Z,29.80
2018-06-30T18:38:13.202Z,29.80
2018-06-30T18:40:48.334Z,29.60
2018-06-30T18:43:23.675Z,29.60
2018-06-30T18:45:57.589Z,29.50
2018-06-30T18:48:30.953Z,29.40
2018-06-30T18:51:04.480Z,29.40
2018-06-30T18:53:37.462Z,29.30
2018-06-30T18:56:11.728Z,29.20
2018-06-30T18:58:45.997Z,29.10
2018-06-30T19:01:20.426Z,29.10
2018-06-30T19:03:55.925Z,29.10
2018-06-30T19:06:32.028Z,29.00
2018-06-30T19:09:07.472Z,29.00
2018-06-30T19:11:41.460Z,29.00
2018-06-30T19:14:16.659Z,28.90
2018-06-30T19:16:50.938Z,28.80
2018-06-30T19:19:40.720Z,28.70
2018-06-30T19:22:19.269Z,28.50
2018-06-30T19:24:54.477Z,28.50
2018-06-30T19:27:29.177Z,28.50
2018-06-30T19:30:04.417Z,28.50
2018-06-30T19:32:38.695Z,28.40
2018-06-30T19:35:12.057Z,28.40
2018-06-30T19:37:47.915Z,28.40
2018-06-30T19:40:28.630Z,28.30
2018-06-30T19:43:18.874Z,28.20
2018-06-30T19:45:59.434Z,28.20
2018-06-30T19:48:34.772Z,28.00
2018-06-30T19:51:12.262Z,28.00
2018-06-30T19:53:49.598Z,27.80
2018-06-30T19:56:37.787Z,27.90
2018-06-30T19:59:13.350Z,27.90
2018-06-30T20:01:50.409Z,27.80
2018-06-30T20:04:31.309Z,27.60
2018-06-30T20:07:06.138Z,27.50
2018-06-30T20:09:39.635Z,27.40
2018-06-30T20:12:12.929Z,27.20
2018-06-30T20:14:48.275Z,27.60
2018-06-30T20:17:21.232Z,27.30
2018-06-30T20:19:54.757Z,27.20
2018-06-30T20:22:27.847Z,27.20
2018-06-30T20:25:03.910Z,27.10
2018-06-30T20:27:39.528Z,27.00
2018-06-30T20:30:14.181Z,26.80
2018-06-30T20:32:50.548Z,26.70
2018-06-30T20:35:35.827Z,26.70
2018-06-30T20:38:20.882Z,26.70
2018-06-30T20:40:57.362Z,26.70
2018-06-30T20:43:35.980Z,26.60
2018-06-30T20:46:12.347Z,26.50
2018-06-30T20:48:47.058Z,26.40
2018-06-30T20:51:23.444Z,26.30
2018-06-30T20:53:59.557Z,26.20
2018-06-30T20:56:47.852Z,26.20
2018-06-30T20:59:22.989Z,26.10
2018-06-30T21:05:01.931Z,25.90
2018-06-30T21:07:36.049Z,25.80
2018-06-30T21:10:08.398Z,25.70
2018-06-30T21:12:43.252Z,25.70
2018-06-30T21:15:18.082Z,25.70
2018-06-30T21:17:52.397Z,25.60
2018-06-30T21:20:27.528Z,25.60
2018-06-30T21:26:13.044Z,25.60
2018-06-30T21:28:40.996Z,25.40
2018-06-30T21:31:08.793Z,25.30
2018-06-30T21:33:36.564Z,25.20
2018-06-30T21:36:04.385Z,25.10
2018-06-30T21:38:32.157Z,25.10
2018-06-30T21:43:27.652Z,25.00
2018-06-30T21:45:55.488Z,25.00
2018-06-30T21:48:23.305Z,24.90
2018-06-30T21:50:51.144Z,24.90
2018-06-30T21:53:19.133Z,24.90
2018-06-30T21:55:46.921Z,24.80
2018-06-30T21:58:14.665Z,24.80
2018-06-30T22:00:49.498Z,24.70
2018-06-30T22:03:19.794Z,24.60
2018-06-30T22:05:47.625Z,24.60
2018-06-30T22:08:15.429Z,24.50
2018-06-30T22:10:43.322Z,24.50
2018-06-30T22:13:11.037Z,24.40
2018-06-30T22:15:38.846Z,24.40
2018-06-30T22:18:06.645Z,24.30
2018-06-30T22:20:35.108Z,24.20
2018-06-30T22:23:03.110Z,24.20
2018-06-30T22:25:31.185Z,24.20
2018-06-30T22:28:00.584Z,24.10
2018-06-30T22:30:28.316Z,24.10
2018-06-30T22:32:56.164Z,24.00
2018-06-30T22:35:23.964Z,24.00
2018-06-30T22:37:51.812Z,24.00
2018-06-30T22:40:19.849Z,23.90
2018-06-30T22:42:47.860Z,23.90
2018-06-30T22:45:16.124Z,23.90
2018-06-30T22:47:44.384Z,23.90
2018-06-30T22:52:41.225Z,23.80
2018-06-30T22:55:09.012Z,23.80
2018-06-30T22:57:37.033Z,23.70
2018-06-30T23:00:07.577Z,23.70
2018-06-30T23:02:35.377Z,23.70
2018-06-30T23:05:03.777Z,23.60
2018-06-30T23:07:31.553Z,23.60
2018-06-30T23:10:03.302Z,23.60
2018-06-30T23:12:31.240Z,23.50
2018-06-30T23:14:59.159Z,23.50
2018-06-30T23:17:27.169Z,23.40
2018-06-30T23:19:54.982Z,23.40
2018-06-30T23:22:45.144Z,23.40
2018-06-30T23:25:12.973Z,23.40
2018-06-30T23:27:40.759Z,23.40
2018-06-30T23:30:08.578Z,23.40
2018-06-30T23:32:36.400Z,23.30
2018-06-30T23:35:04.826Z,23.30
2018-06-30T23:37:32.660Z,23.30
2018-06-30T23:40:00.542Z,23.30
2018-06-30T23:42:28.365Z,23.20
2018-06-30T23:44:56.287Z,23.20
2018-06-30T23:47:24.107Z,23.10
2018-06-30T23:49:51.905Z,23.10
2018-06-30T23:52:19.772Z,23.00
2018-06-30T23:54:47.697Z,23.10
2018-06-30T23:57:15.557Z,23.20
2018-06-30T23:59:43.357Z,23.20
